createdAt,value
2023-05-15T00:02:16.852Z,19.05
2023-05-15T00:04:43.647Z,20.45
2023-05-15T00:07:10.878Z,19.88
2023-05-15T00:09:37.651Z,22.00
2023-05-15T00:12:04.598Z,24.23
2023-05-15T00:14:31.325Z,22.80
2023-05-15T00:16:58.003Z,22.65
2023-05-15T00:19:24.826Z,20.88
2023-05-15T00:21:51.672Z,27.73
2023-05-15T00:24:19.341Z,20.92
2023-05-15T00:26:46.092Z,23.88
2023-05-15T00:29:12.874Z,21.13
2023-05-15T00:31:39.683Z,23.77
2023-05-15T00:34:06.664Z,21.50
2023-05-15T00:36:33.431Z,24.15
2023-05-15T00:39:00.169Z,24.75
2023-05-15T00:41:28.839Z,23.88
2023-05-15T00:43:56.788Z,24.48
2023-05-15T00:46:25.800Z,25.08
2023-05-15T00:48:53.509Z,22.35
2023-05-15T00:51:20.238Z,23.75
2023-05-15T00:53:47.624Z,26.23
2023-05-15T00:56:16.970Z,22.75
2023-05-15T00:58:47.420Z,23.27
2023-05-15T01:01:16.170Z,24.85
2023-05-15T01:03:43.891Z,26.70
2023-05-15T01:06:12.047Z,24.35
2023-05-15T01:08:49.470Z,21.52
2023-05-15T01:11:18.109Z,27.30
2023-05-15T01:13:44.865Z,23.88
2023-05-15T01:16:12.088Z,23.02
2023-05-15T01:18:39.018Z,26.33
2023-05-15T01:21:30.312Z,23.75
2023-05-15T01:24:18.645Z,26.85
2023-05-15T01:27:27.344Z,25.20
2023-05-15T01:30:08.016Z,26.02
2023-05-15T01:32:37.896Z,25.90
2023-05-15T01:35:13.461Z,23.80
2023-05-15T01:37:49.908Z,22.30
2023-05-15T01:40:19.812Z,23.30
2023-05-15T01:42:55.233Z,23.58
2023-05-15T01:45:25.061Z,22.88
2023-05-15T01:47:54.398Z,23.90
2023-05-15T01:50:22.037Z,28.27
2023-05-15T01:52:52.212Z,26.70
2023-05-15T01:55:20.709Z,26.48
2023-05-15T01:57:50.282Z,25.33
2023-05-15T02:00:17.983Z,25.83
2023-05-15T02:02:46.450Z,30.63
2023-05-15T02:05:14.098Z,30.98
2023-05-15T02:07:44.539Z,34.70
2023-05-15T02:12:42.361Z,36.60
2023-05-15T02:15:13.237Z,39.40
2023-05-15T02:17:40.314Z,41.47
2023-05-15T02:20:08.555Z,37.97
2023-05-15T02:22:35.769Z,41.03
2023-05-15T02:25:02.547Z,40.00
2023-05-15T02:27:37.855Z,36.75
2023-05-15T02:30:23.442Z,44.90
2023-05-15T02:33:14.918Z,42.40
2023-05-15T02:36:07.265Z,40.92
2023-05-15T02:38:45.097Z,38.97
2023-05-15T02:41:12.852Z,38.38
2023-05-15T02:43:41.048Z,38.58
2023-05-15T02:46:08.573Z,43.65
2023-05-15T02:48:39.716Z,36.30
2023-05-15T02:51:07.600Z,40.33
2023-05-15T02:53:42.435Z,41.35
2023-05-15T02:56:09.933Z,41.78
2023-05-15T02:58:37.785Z,40.83
2023-05-15T03:01:04.698Z,41.53
2023-05-15T03:03:31.500Z,39.25
2023-05-15T03:05:58.280Z,38.92
2023-05-15T03:08:25.046Z,38.47
2023-05-15T03:10:52.421Z,44.40
2023-05-15T03:13:19.210Z,38.58
2023-05-15T03:15:46.013Z,41.13
2023-05-15T03:18:12.814Z,42.78
2023-05-15T03:20:39.500Z,39.55
2023-05-15T03:23:06.246Z,38.65
2023-05-15T03:25:32.974Z,47.28
2023-05-15T03:27:59.826Z,39.53
2023-05-15T03:30:26.510Z,50.90
2023-05-15T03:32:53.296Z,44.10
2023-05-15T03:35:20.036Z,41.65
2023-05-15T03:37:46.732Z,43.42
2023-05-15T03:40:13.942Z,40.13
2023-05-15T03:42:40.736Z,44.42
2023-05-15T03:45:08.287Z,47.28
2023-05-15T03:47:35.081Z,43.40
2023-05-15T03:50:01.911Z,47.13
2023-05-15T03:52:28.824Z,43.40
2023-05-15T03:54:55.559Z,45.33
2023-05-15T03:57:22.392Z,48.33
2023-05-15T03:59:49.111Z,49.95
2023-05-15T04:02:15.846Z,50.83
2023-05-15T04:04:44.538Z,46.55
2023-05-15T04:07:11.293Z,45.88
2023-05-15T04:09:38.713Z,46.30
2023-05-15T04:12:05.845Z,44.45
2023-05-15T04:14:32.517Z,43.53
2023-05-15T04:16:59.246Z,45.97
2023-05-15T04:19:25.937Z,46.92
2023-05-15T04:21:52.686Z,43.25
2023-05-15T04:24:19.458Z,42.85
2023-05-15T04:26:46.380Z,42.38
2023-05-15T04:29:13.181Z,40.28
2023-05-15T04:31:39.871Z,42.97
2023-05-15T04:34:06.900Z,41.65
2023-05-15T04:36:34.180Z,45.72
2023-05-15T04:39:00.971Z,42.38
2023-05-15T04:41:27.749Z,42.17
2023-05-15T04:43:54.576Z,46.95
2023-05-15T04:46:21.529Z,43.38
2023-05-15T04:48:48.303Z,39.55
2023-05-15T04:51:15.047Z,37.85
2023-05-15T04:53:41.698Z,42.58
2023-05-15T04:56:08.396Z,39.78
2023-05-15T04:58:35.066Z,46.28
2023-05-15T05:01:03.872Z,50.20
2023-05-15T05:03:31.211Z,49.42
2023-05-15T05:05:58.033Z,45.38
2023-05-15T05:08:24.714Z,42.90
2023-05-15T05:10:57.151Z,48.00
2023-05-15T05:13:23.931Z,44.78
2023-05-15T05:15:50.784Z,42.13
2023-05-15T05:18:17.541Z,43.65
2023-05-15T05:20:44.268Z,43.83
2023-05-15T05:23:11.112Z,43.63
2023-05-15T05:25:37.809Z,43.85
2023-05-15T05:28:04.634Z,36.08
2023-05-15T05:30:31.371Z,43.95
2023-05-15T05:32:58.073Z,40.42
2023-05-15T05:35:25.038Z,40.13
2023-05-15T05:37:51.890Z,42.17
2023-05-15T05:40:18.760Z,42.72
2023-05-15T05:42:45.871Z,36.63
2023-05-15T05:45:12.631Z,41.17
2023-05-15T05:47:39.306Z,35.70
2023-05-15T05:50:07.394Z,34.92
2023-05-15T05:52:34.073Z,37.08
2023-05-15T05:55:00.824Z,37.78
2023-05-15T05:57:27.579Z,34.80
2023-05-15T05:59:54.493Z,32.47
2023-05-15T06:02:21.252Z,37.05
2023-05-15T06:04:47.996Z,33.80
2023-05-15T06:07:14.697Z,29.52
2023-05-15T06:09:41.505Z,33.63
2023-05-15T06:12:09.180Z,29.58
2023-05-15T06:14:36.136Z,33.85
2023-05-15T06:17:03.235Z,30.17
2023-05-15T06:19:30.387Z,30.20
2023-05-15T06:21:57.279Z,27.90
2023-05-15T06:24:24.024Z,28.23
2023-05-15T06:26:52.359Z,29.38
2023-05-15T06:29:19.509Z,27.98
2023-05-15T06:31:46.222Z,24.38
2023-05-15T06:34:12.980Z,26.52
2023-05-15T06:36:39.758Z,25.98
2023-05-15T06:39:06.883Z,23.35
2023-05-15T06:41:33.658Z,22.40
2023-05-15T06:44:00.411Z,25.45
2023-05-15T06:46:27.229Z,23.10
2023-05-15T06:48:54.050Z,23.48
2023-05-15T06:51:20.903Z,24.48
2023-05-15T06:53:47.661Z,24.60
2023-05-15T06:56:14.413Z,26.08
2023-05-15T06:58:41.198Z,29.70
2023-05-15T07:01:09.622Z,27.20
2023-05-15T07:03:36.333Z,27.02
2023-05-15T07:06:03.172Z,27.02
2023-05-15T07:08:29.957Z,24.73
2023-05-15T07:10:56.968Z,28.70
2023-05-15T07:13:23.718Z,26.58
2023-05-15T07:15:50.515Z,25.08
2023-05-15T07:18:17.986Z,26.13
2023-05-15T07:20:45.067Z,27.52
2023-05-15T07:23:11.821Z,22.25
2023-05-15T07:25:38.701Z,24.38
2023-05-15T07:28:05.657Z,23.35
2023-05-15T07:30:32.459Z,23.58
2023-05-15T07:32:59.348Z,22.40
2023-05-15T07:35:26.592Z,19.83
2023-05-15T07:37:53.697Z,18.65
2023-05-15T07:40:20.627Z,25.30
2023-05-15T07:42:47.605Z,19.88
2023-05-15T07:45:14.416Z,20.80
2023-05-15T07:47:46.441Z,19.77
2023-05-15T07:50:13.901Z,21.30
2023-05-15T07:52:41.440Z,18.55
2023-05-15T07:55:09.658Z,16.77
2023-05-15T07:57:36.699Z,17.52
2023-05-15T08:00:10.849Z,18.77
2023-05-15T08:02:37.880Z,21.80
2023-05-15T08:05:05.475Z,19.30
2023-05-15T08:07:33.708Z,23.05
2023-05-15T08:10:00.687Z,21.85
2023-05-15T08:12:27.608Z,17.95
2023-05-15T08:14:55.674Z,19.88
2023-05-15T08:17:23.494Z,20.90
2023-05-15T08:19:50.406Z,21.55
2023-05-15T08:22:17.287Z,21.58
2023-05-15T08:24:44.757Z,17.33
2023-05-15T08:27:11.595Z,21.02
2023-05-15T08:29:39.738Z,21.95
2023-05-15T08:32:08.740Z,21.27
2023-05-15T08:34:35.690Z,20.90
2023-05-15T08:37:02.393Z,39.33
2023-05-15T08:39:29.168Z,24.40
2023-05-15T08:42:20.977Z,23.30
2023-05-15T08:44:48.609Z,28.13
2023-05-15T08:47:16.021Z,25.08
2023-05-15T08:49:48.603Z,23.77
2023-05-15T08:52:16.190Z,23.75
2023-05-15T08:54:43.137Z,24.10
2023-05-15T08:57:11.083Z,23.48
2023-05-15T08:59:38.537Z,24.38
2023-05-15T09:02:06.020Z,24.13
2023-05-15T09:04:32.806Z,22.05
2023-05-15T09:07:01.719Z,25.65
2023-05-15T09:09:29.464Z,27.10
2023-05-15T09:11:56.308Z,23.75
2023-05-15T09:14:23.028Z,26.75
2023-05-15T09:16:53.154Z,22.17
2023-05-15T09:19:23.145Z,24.45
2023-05-15T09:21:50.081Z,22.67
2023-05-15T09:24:22.833Z,23.77
2023-05-15T09:27:06.994Z,21.17
2023-05-15T09:29:35.878Z,24.20
2023-05-15T09:32:13.764Z,23.92
2023-05-15T09:34:44.796Z,25.13
2023-05-15T09:37:28.947Z,24.13
2023-05-15T09:39:55.946Z,30.75
2023-05-15T09:42:24.849Z,30.48
2023-05-15T09:44:51.630Z,35.92
2023-05-15T09:47:19.553Z,35.05
2023-05-15T09:49:47.175Z,38.88
2023-05-15T09:52:16.132Z,37.35
2023-05-15T09:54:49.493Z,37.33
2023-05-15T09:57:21.059Z,39.70
2023-05-15T09:59:49.056Z,33.55
2023-05-15T10:02:32.242Z,32.42
2023-05-15T10:04:59.545Z,34.40
2023-05-15T10:07:31.537Z,33.05
2023-05-15T10:09:58.959Z,31.25
2023-05-15T10:12:27.175Z,31.70
2023-05-15T10:14:57.159Z,31.50
2023-05-15T10:17:24.322Z,29.45
2023-05-15T10:19:58.499Z,29.35
2023-05-15T10:22:29.808Z,29.75
2023-05-15T10:25:23.880Z,30.98
2023-05-15T10:27:52.076Z,30.63
2023-05-15T10:30:20.332Z,27.10
2023-05-15T10:32:48.656Z,30.73
2023-05-15T10:35:16.410Z,29.08
2023-05-15T10:37:47.936Z,28.77
2023-05-15T10:40:16.098Z,27.40
2023-05-15T10:42:45.089Z,27.42
2023-05-15T10:45:12.046Z,27.95
2023-05-15T10:47:40.814Z,29.10
2023-05-15T10:50:08.248Z,26.75
2023-05-15T10:52:36.989Z,29.90
2023-05-15T10:55:07.238Z,33.15
2023-05-15T10:57:34.256Z,29.15
2023-05-15T11:00:02.129Z,32.65
2023-05-15T11:02:31.432Z,32.60
2023-05-15T11:05:01.279Z,30.50
2023-05-15T11:07:28.405Z,36.40
2023-05-15T11:09:56.338Z,32.92
2023-05-15T11:12:24.619Z,32.13
2023-05-15T11:14:57.229Z,32.38
2023-05-15T11:17:24.514Z,32.30
2023-05-15T11:19:51.488Z,32.42
2023-05-15T11:22:25.976Z,33.75
2023-05-15T11:25:10.473Z,34.50
2023-05-15T11:27:46.977Z,36.17
2023-05-15T11:30:22.251Z,35.17
2023-05-15T11:33:01.257Z,31.88
2023-05-15T11:35:29.293Z,28.90
2023-05-15T11:37:57.266Z,31.02
2023-05-15T11:40:45.047Z,28.00
2023-05-15T11:43:24.757Z,32.63
2023-05-15T11:45:58.132Z,32.40
2023-05-15T11:48:31.420Z,30.08
2023-05-15T11:50:58.451Z,29.85
2023-05-15T11:53:25.627Z,30.13
2023-05-15T11:55:54.574Z,28.75
2023-05-15T11:58:23.826Z,31.00
2023-05-15T12:00:52.507Z,30.80
2023-05-15T12:03:26.113Z,26.80
2023-05-15T12:05:59.499Z,25.60
2023-05-15T12:08:31.777Z,28.77
2023-05-15T12:10:59.921Z,30.50
2023-05-15T12:13:26.768Z,28.83
2023-05-15T12:15:55.441Z,26.15
2023-05-15T12:18:22.570Z,28.15
2023-05-15T12:20:52.698Z,24.42
2023-05-15T12:23:21.810Z,24.08
2023-05-15T12:25:52.096Z,23.60
2023-05-15T12:30:46.084Z,22.77
2023-05-15T12:33:13.333Z,21.05
2023-05-15T12:35:50.066Z,20.48
2023-05-15T12:38:16.849Z,18.88
2023-05-15T12:40:47.509Z,17.52
2023-05-15T12:43:14.812Z,19.90
2023-05-15T12:45:42.276Z,20.98
2023-05-15T12:48:15.094Z,15.98
2023-05-15T12:50:45.167Z,16.38
2023-05-15T12:53:15.968Z,18.98
2023-05-15T12:55:45.361Z,15.55
2023-05-15T12:58:14.897Z,18.57
2023-05-15T13:00:43.106Z,16.15
2023-05-15T13:03:12.196Z,18.55
2023-05-15T13:05:41.914Z,15.82
2023-05-15T13:08:08.703Z,13.93
2023-05-15T13:10:37.734Z,12.25
2023-05-15T13:13:04.563Z,14.63
2023-05-15T13:15:44.994Z,14.65
2023-05-15T13:18:14.053Z,13.30
2023-05-15T13:20:42.450Z,13.80
2023-05-15T13:23:11.257Z,18.73
2023-05-15T13:25:38.125Z,18.75
2023-05-15T13:28:06.951Z,18.73
2023-05-15T13:30:34.816Z,16.02
2023-05-15T13:33:02.413Z,18.33
2023-05-15T13:35:29.365Z,21.05
2023-05-15T13:37:56.928Z,19.25
2023-05-15T13:40:24.196Z,18.17
2023-05-15T13:42:51.225Z,17.27
2023-05-15T13:45:18.067Z,15.80
2023-05-15T13:47:45.240Z,15.40
2023-05-15T13:50:14.087Z,15.43
2023-05-15T13:52:41.819Z,14.98
2023-05-15T13:55:12.430Z,12.52
2023-05-15T13:57:41.030Z,13.20
2023-05-15T14:00:13.342Z,12.48
2023-05-15T14:02:41.842Z,11.07
2023-05-15T14:05:11.118Z,10.85
2023-05-15T14:07:37.914Z,10.00
2023-05-15T14:10:05.200Z,13.13
2023-05-15T14:12:32.617Z,8.32
2023-05-15T14:14:59.837Z,8.35
2023-05-15T14:17:27.834Z,7.65
2023-05-15T14:19:54.675Z,9.73
2023-05-15T14:22:24.756Z,12.00
2023-05-15T14:27:19.074Z,9.30
2023-05-15T14:29:45.974Z,13.38
2023-05-15T14:32:12.870Z,10.48
2023-05-15T14:34:40.885Z,8.10
2023-05-15T14:37:07.646Z,11.65
2023-05-15T14:39:34.365Z,8.65
2023-05-15T14:42:01.105Z,8.50
2023-05-15T14:44:28.161Z,8.38
2023-05-15T14:47:14.957Z,9.30
2023-05-15T14:49:41.717Z,9.52
2023-05-15T14:52:09.873Z,10.45
2023-05-15T14:54:37.527Z,9.80
2023-05-15T14:57:04.813Z,14.77
2023-05-15T14:59:31.587Z,8.35
2023-05-15T15:01:58.493Z,8.70
2023-05-15T15:04:26.964Z,8.00
2023-05-15T15:06:57.019Z,5.70
2023-05-15T15:09:25.360Z,6.53
2023-05-15T15:11:53.172Z,7.72
2023-05-15T15:14:20.024Z,8.98
2023-05-15T15:16:47.003Z,7.35
2023-05-15T15:19:15.125Z,5.95
2023-05-15T15:21:43.239Z,6.82
2023-05-15T15:24:10.043Z,7.40
2023-05-15T15:26:36.756Z,9.07
2023-05-15T15:29:03.560Z,10.60
2023-05-15T15:31:30.957Z,8.10
2023-05-15T15:33:58.365Z,6.07
2023-05-15T15:36:25.657Z,6.13
2023-05-15T15:38:52.904Z,10.18
2023-05-15T15:41:21.642Z,5.88
2023-05-15T15:43:48.505Z,4.53
2023-05-15T15:46:15.510Z,5.38
2023-05-15T15:48:42.313Z,3.63
2023-05-15T15:51:09.133Z,4.75
2023-05-15T15:53:35.889Z,6.13
2023-05-15T15:56:02.679Z,5.60
2023-05-15T15:58:30.207Z,7.25
2023-05-15T16:00:57.712Z,6.95
2023-05-15T16:03:24.859Z,10.68
2023-05-15T16:05:52.781Z,4.88
2023-05-15T16:08:19.496Z,5.88
2023-05-15T16:10:46.300Z,5.45
2023-05-15T16:13:13.332Z,7.57
2023-05-15T16:15:40.056Z,5.57
2023-05-15T16:18:07.092Z,7.30
2023-05-15T16:20:35.245Z,8.88
2023-05-15T16:23:02.247Z,6.38
2023-05-15T16:25:29.088Z,9.43
2023-05-15T16:27:55.782Z,12.52
2023-05-15T16:30:24.691Z,8.98
2023-05-15T16:32:55.209Z,8.73
2023-05-15T16:35:22.335Z,10.48
2023-05-15T16:37:49.282Z,9.85
2023-05-15T16:40:16.223Z,10.48
2023-05-15T16:42:43.187Z,12.35
2023-05-15T16:45:10.261Z,8.85
2023-05-15T16:47:39.205Z,10.82
2023-05-15T16:50:07.308Z,9.65
2023-05-15T16:52:34.243Z,8.90
2023-05-15T16:55:01.087Z,8.05
2023-05-15T16:57:27.875Z,7.65
2023-05-15T16:59:54.924Z,7.65
2023-05-15T17:02:21.756Z,8.30
2023-05-15T17:04:48.651Z,7.70
2023-05-15T17:07:15.389Z,7.15
2023-05-15T17:09:44.472Z,6.47
2023-05-15T17:12:11.697Z,7.72
2023-05-15T17:14:38.546Z,10.40
2023-05-15T17:17:05.357Z,7.75
2023-05-15T17:19:35.099Z,9.70
2023-05-15T17:22:01.923Z,9.20
2023-05-15T17:24:32.861Z,8.82
2023-05-15T17:27:09.305Z,8.93
2023-05-15T17:29:36.210Z,6.50
2023-05-15T17:32:03.489Z,11.40
2023-05-15T17:34:30.659Z,9.30
2023-05-15T17:36:57.417Z,7.72
2023-05-15T17:39:24.170Z,8.05
2023-05-15T17:41:51.030Z,8.88
2023-05-15T17:44:17.724Z,7.15
2023-05-15T17:46:44.462Z,7.30
2023-05-15T17:49:11.852Z,11.80
2023-05-15T17:51:38.546Z,7.78
2023-05-15T17:54:05.414Z,10.18
2023-05-15T17:56:32.110Z,10.40
2023-05-15T17:58:58.850Z,7.85
2023-05-15T18:01:25.749Z,10.23
2023-05-15T18:03:52.546Z,8.90
2023-05-15T18:06:19.358Z,14.88
2023-05-15T18:08:47.477Z,12.75
2023-05-15T18:11:22.288Z,11.90
2023-05-15T18:13:49.764Z,11.40
2023-05-15T18:16:17.944Z,11.10
2023-05-15T18:18:45.123Z,10.95
2023-05-15T18:21:11.934Z,13.73
2023-05-15T18:23:38.695Z,12.10
2023-05-15T18:26:05.812Z,14.82
2023-05-15T18:28:32.587Z,10.23
2023-05-15T18:30:59.548Z,11.05
2023-05-15T18:33:26.366Z,15.63
2023-05-15T18:35:53.590Z,14.35
2023-05-15T18:38:21.041Z,14.20
2023-05-15T18:40:48.067Z,12.13
2023-05-15T18:43:15.109Z,9.82
2023-05-15T18:45:41.841Z,9.63
2023-05-15T18:48:08.656Z,10.50
2023-05-15T18:50:36.037Z,12.20
2023-05-15T18:53:03.188Z,9.60
2023-05-15T18:55:30.166Z,7.95
2023-05-15T18:57:56.977Z,7.90
2023-05-15T19:00:37.069Z,8.05
2023-05-15T19:03:05.483Z,8.07
2023-05-15T19:05:34.140Z,9.38
2023-05-15T19:08:01.445Z,8.38
2023-05-15T19:10:30.434Z,11.55
2023-05-15T19:12:58.136Z,10.23
2023-05-15T19:15:25.654Z,4.93
2023-05-15T19:17:52.621Z,3.60
2023-05-15T19:20:20.073Z,6.63
2023-05-15T19:22:46.865Z,2.35
2023-05-15T19:25:13.719Z,6.40
2023-05-15T19:27:41.520Z,3.92
2023-05-15T19:30:09.965Z,3.58
2023-05-15T19:32:37.231Z,4.60
2023-05-15T19:35:04.589Z,4.43
2023-05-15T19:37:31.289Z,4.38
2023-05-15T19:39:58.280Z,5.97
2023-05-15T19:42:25.146Z,5.68
2023-05-15T19:44:51.914Z,6.35
2023-05-15T19:47:18.690Z,4.35
2023-05-15T19:49:45.642Z,4.30
2023-05-15T19:52:12.426Z,5.95
2023-05-15T19:54:39.160Z,5.25
2023-05-15T19:57:06.058Z,7.65
2023-05-15T19:59:32.837Z,6.85
2023-05-15T20:02:00.454Z,6.40
2023-05-15T20:04:27.992Z,4.70
2023-05-15T20:06:54.827Z,5.32
2023-05-15T20:09:21.573Z,5.13
2023-05-15T20:11:48.303Z,8.38
2023-05-15T20:14:15.291Z,8.60
2023-05-15T20:16:42.149Z,9.98
2023-05-15T20:19:10.975Z,6.13
2023-05-15T20:21:38.472Z,4.70
2023-05-15T20:24:05.863Z,6.82
2023-05-15T20:26:32.792Z,6.20
2023-05-15T20:28:59.505Z,5.78
2023-05-15T20:31:26.286Z,5.00
2023-05-15T20:33:53.152Z,7.75
2023-05-15T20:36:25.155Z,3.95
2023-05-15T20:38:52.811Z,8.60
2023-05-15T20:41:22.243Z,7.63
2023-05-15T20:43:49.765Z,7.90
2023-05-15T20:46:17.031Z,6.85
2023-05-15T20:48:43.967Z,7.20
2023-05-15T20:51:10.729Z,5.90
2023-05-15T20:53:37.554Z,9.40
2023-05-15T20:56:04.354Z,9.70
2023-05-15T20:58:31.252Z,8.05
2023-05-15T21:01:00.869Z,10.13
2023-05-15T21:03:28.550Z,7.35
2023-05-15T21:05:57.029Z,13.23
2023-05-15T21:08:24.361Z,9.02
2023-05-15T21:10:53.104Z,9.70
2023-05-15T21:13:19.915Z,10.07
2023-05-15T21:15:46.751Z,14.50
2023-05-15T21:18:13.491Z,9.23
2023-05-15T21:20:40.534Z,10.95
2023-05-15T21:23:07.784Z,12.40
2023-05-15T21:25:34.613Z,13.65
2023-05-15T21:28:01.395Z,10.77
2023-05-15T21:30:28.321Z,11.43
2023-05-15T21:32:55.326Z,6.32
2023-05-15T21:35:22.258Z,13.10
2023-05-15T21:37:49.075Z,15.52
2023-05-15T21:40:15.883Z,18.60
2023-05-15T21:42:43.180Z,13.93
2023-05-15T21:45:10.919Z,9.90
2023-05-15T21:47:37.804Z,10.73
2023-05-15T21:50:06.058Z,11.45
2023-05-15T21:52:32.962Z,12.15
2023-05-15T21:54:59.718Z,13.48
2023-05-15T21:57:26.467Z,14.50
2023-05-15T21:59:53.196Z,14.43
2023-05-15T22:02:20.036Z,13.90
2023-05-15T22:04:46.768Z,10.60
2023-05-15T22:07:14.845Z,10.77
2023-05-15T22:09:43.142Z,11.70
2023-05-15T22:12:10.264Z,10.73
2023-05-15T22:14:39.611Z,10.10
2023-05-15T22:17:12.451Z,12.35
2023-05-15T22:19:42.194Z,13.68
2023-05-15T22:22:09.599Z,14.18
2023-05-15T22:24:36.359Z,15.57
2023-05-15T22:27:03.310Z,15.07
2023-05-15T22:29:30.008Z,10.00
2023-05-15T22:31:56.830Z,13.30
2023-05-15T22:34:25.266Z,15.95
2023-05-15T22:39:23.648Z,16.58
2023-05-15T22:41:50.579Z,13.20
2023-05-15T22:44:17.343Z,12.45
2023-05-15T22:46:44.127Z,15.43
2023-05-15T22:49:23.321Z,15.65
2023-05-15T22:51:50.154Z,10.98
2023-05-15T22:54:21.511Z,11.18
2023-05-15T22:56:50.056Z,13.32
2023-05-15T22:59:17.296Z,15.70
2023-05-15T23:01:45.372Z,14.13
2023-05-15T23:04:13.271Z,16.98
2023-05-15T23:06:41.307Z,15.10
2023-05-15T23:09:08.890Z,11.52
2023-05-15T23:11:36.108Z,15.60
2023-05-15T23:14:03.468Z,14.13
2023-05-15T23:16:30.403Z,11.70
2023-05-15T23:19:00.603Z,19.00
2023-05-15T23:21:28.499Z,13.95
2023-05-15T23:23:55.202Z,14.20
2023-05-15T23:26:22.112Z,13.80
2023-05-15T23:28:50.051Z,12.85
2023-05-15T23:31:16.837Z,15.63
2023-05-15T23:33:43.632Z,14.75
2023-05-15T23:36:10.558Z,14.48
2023-05-15T23:38:37.414Z,15.63
2023-05-15T23:41:04.183Z,9.93
2023-05-15T23:43:31.689Z,16.63
2023-05-15T23:45:58.739Z,12.50
2023-05-15T23:48:25.452Z,16.02
2023-05-15T23:50:52.986Z,15.10
2023-05-15T23:53:20.889Z,16.98
2023-05-15T23:55:47.768Z,11.80
2023-05-15T23:58:14.552Z,13.38
